Time;durP1;ratioP1;P1;durP2;ratioP2;P2;SDS_P1;SDS_P2;PMS_P1;PMS_P2;Temp;Humidity;BMP_temperature;BMP_pressure;BME280_temperature;BME280_humidity;BME280_pressure;Samples;Min_cycle;Max_cycle;Signal;HPM_P1;HPM_P2
2024/03/10 00:00:31;;;;;;;15.80;12.00;;;;;;;4.26;82.34;96154.05;109137;1270;22559;-73
2024/03/10 00:03:26;;;;;;;16.10;11.50;;;;;;;4.29;82.23;96145.98;109062;1257;22602;-73
2024/03/10 00:06:04;;;;;;;20.00;12.70;;;;;;;4.31;82.15;96147.73;109132;1272;23989;-73
2024/03/10 00:08:35;;;;;;;17.80;12.80;;;;;;;4.30;82.14;96150.20;109134;1272;22507;-73
2024/03/10 00:11:09;;;;;;;17.50;11.80;;;;;;;4.30;82.02;96152.45;109151;1272;22544;-73
2024/03/10 00:13:43;;;;;;;16.20;11.20;;;;;;;4.27;81.94;96153.96;109182;1270;22638;-73
2024/03/10 00:16:14;;;;;;;14.90;11.00;;;;;;;4.23;81.88;96159.13;109205;1269;24075;-73
2024/03/10 00:18:54;;;;;;;18.50;12.80;;;;;;;4.22;81.97;96158.45;109185;1272;24289;-73
2024/03/10 00:21:35;;;;;;;18.80;12.00;;;;;;;4.22;81.99;96157.94;109081;1267;22994;-73
2024/03/10 00:24:15;;;;;;;15.40;11.40;;;;;;;4.22;81.74;96154.95;109158;1267;22529;-73
2024/03/10 00:26:49;;;;;;;15.30;10.80;;;;;;;4.21;81.86;96159.55;109172;1250;25443;-73
2024/03/10 00:29:21;;;;;;;14.10;10.50;;;;;;;4.22;81.91;96166.48;109176;1272;22519;-73
2024/03/10 00:31:59;;;;;;;18.70;12.10;;;;;;;4.20;81.70;96166.90;109155;1266;22525;-73
2024/03/10 00:34:34;;;;;;;17.20;12.40;;;;;;;4.18;81.78;96169.35;109142;1254;22511;-73
2024/03/10 00:37:11;;;;;;;15.30;11.10;;;;;;;4.16;81.86;96171.54;109142;1270;22525;-73
2024/03/10 00:39:44;;;;;;;15.00;11.60;;;;;;;4.16;81.94;96168.48;109167;1272;22456;-73
2024/03/10 00:42:17;;;;;;;19.50;12.90;;;;;;;4.15;82.01;96168.27;109115;1272;23316;-73
2024/03/10 00:44:50;;;;;;;16.10;11.50;;;;;;;4.13;81.96;96165.95;109152;1265;24344;-73
2024/03/10 00:47:25;;;;;;;16.50;11.50;;;;;;;4.12;81.87;96159.70;109180;1272;24489;-73
2024/03/10 00:49:59;;;;;;;16.80;11.60;;;;;;;4.10;81.96;96162.67;109141;1266;22519;-73
2024/03/10 00:52:30;;;;;;;19.90;14.60;;;;;;;4.08;81.85;96157.91;109122;1272;22532;-73
2024/03/10 00:55:04;;;;;;;22.20;14.80;;;;;;;4.01;81.98;96155.98;109101;1272;22703;-73
2024/03/10 00:57:37;;;;;;;19.10;13.60;;;;;;;3.92;81.86;96153.41;109191;1266;25935;-73
2024/03/10 01:00:10;;;;;;;21.30;15.00;;;;;;;3.84;81.97;96152.44;109188;1266;22507;-73
2024/03/10 01:02:42;;;;;;;21.80;15.10;;;;;;;3.76;82.17;96150.86;109160;1272;22477;-73
2024/03/10 01:05:15;;;;;;;21.80;15.70;;;;;;;3.70;82.47;96148.52;109173;1269;22512;-73
2024/03/10 01:07:49;;;;;;;18.90;14.10;;;;;;;3.65;82.66;96145.25;109126;1267;23890;-73
2024/03/10 01:10:20;;;;;;;20.80;14.50;;;;;;;3.61;82.62;96141.95;109141;1272;25478;-73
2024/03/10 01:12:51;;;;;;;25.70;17.00;;;;;;;3.58;82.85;96139.56;109125;1272;23686;-73
2024/03/10 01:15:23;;;;;;;23.50;16.20;;;;;;;3.56;83.02;96132.11;109085;1272;22527;-73
2024/03/10 01:17:54;;;;;;;21.20;15.00;;;;;;;3.54;82.97;96131.62;109172;1272;22510;-73
2024/03/10 01:20:26;;;;;;;23.90;15.20;;;;;;;3.54;83.09;96127.38;109140;1272;23675;-73
2024/03/10 01:22:57;;;;;;;23.10;16.40;;;;;;;3.56;83.19;96124.71;109128;1272;23672;-73
2024/03/10 01:25:29;;;;;;;22.60;16.90;;;;;;;3.55;83.19;96120.41;109179;1267;23335;-72
2024/03/10 01:28:00;;;;;;;23.50;16.50;;;;;;;3.54;83.29;96120.09;109107;1266;22569;-73
2024/03/10 01:30:32;;;;;;;20.20;13.70;;;;;;;3.53;83.35;96117.25;109171;1267;25302;-73
2024/03/10 01:33:03;;;;;;;17.60;12.70;;;;;;;3.52;83.34;96116.27;109206;1267;22551;-73
2024/03/10 01:35:39;;;;;;;22.10;14.80;;;;;;;3.50;83.45;96119.02;109202;1269;25246;-73
2024/03/10 01:38:13;;;;;;;19.70;14.00;;;;;;;3.50;83.49;96117.82;109145;1266;22528;-73
2024/03/10 01:40:44;;;;;;;20.10;13.40;;;;;;;3.49;83.67;96112.52;109141;1272;24219;-73
2024/03/10 01:43:15;;;;;;;17.30;11.90;;;;;;;3.49;83.66;96110.52;109117;1272;23684;-73
2024/03/10 01:45:46;;;;;;;19.90;14.00;;;;;;;3.50;83.68;96112.16;109098;1272;23776;-73
2024/03/10 01:48:19;;;;;;;19.70;13.60;;;;;;;3.47;83.64;96108.21;109144;1269;22547;-73
2024/03/10 01:50:50;;;;;;;18.40;13.40;;;;;;;3.49;83.80;96105.86;109182;1272;22542;-73
2024/03/10 01:53:22;;;;;;;17.90;12.90;;;;;;;3.50;83.66;96104.24;109138;1266;22573;-73
2024/03/10 01:55:54;;;;;;;17.20;11.40;;;;;;;3.51;83.64;96103.54;109088;1272;22508;-72
2024/03/10 01:58:26;;;;;;;17.20;11.90;;;;;;;3.52;83.76;96099.00;109195;1272;22634;-73
2024/03/10 02:01:03;;;;;;;18.20;12.70;;;;;;;3.54;83.78;96098.28;109167;1272;22578;-72
2024/03/10 02:03:36;;;;;;;16.50;11.20;;;;;;;3.54;83.76;96098.96;109085;1273;23411;-72
2024/03/10 02:06:09;;;;;;;14.50;10.80;;;;;;;3.55;83.85;96100.49;109050;1270;22526;-73
2024/03/10 02:08:42;;;;;;;15.80;11.40;;;;;;;3.55;83.70;96099.02;109042;1266;22514;-72
2024/03/10 02:11:16;;;;;;;16.10;11.10;;;;;;;3.57;83.82;96095.91;109063;1267;22506;-73
2024/03/10 02:13:47;;;;;;;18.50;11.60;;;;;;;3.58;83.75;96092.39;109136;1273;22517;-73
2024/03/10 02:16:18;;;;;;;15.50;10.10;;;;;;;3.55;83.63;96094.73;109141;1267;22547;-74
2024/03/10 02:18:52;;;;;;;16.00;10.90;;;;;;;3.54;83.76;96093.30;109106;1262;22468;-73
2024/03/10 02:21:24;;;;;;;16.40;11.20;;;;;;;3.56;83.82;96088.49;109109;1266;22529;-73
2024/03/10 02:24:07;;;;;;;16.10;11.10;;;;;;;3.58;83.80;96086.10;109148;1266;25407;-73
2024/03/10 02:26:41;;;;;;;15.90;11.90;;;;;;;3.58;83.78;96084.06;109147;1270;22461;-73
2024/03/10 02:29:21;;;;;;;14.40;10.10;;;;;;;3.62;83.79;96082.15;109120;1272;25007;-73
2024/03/10 02:48:59;;;;;;;16.20;11.80;;;;;;;3.67;83.30;96065.12;108759;1270;22919;-73
2024/03/10 02:51:32;;;;;;;13.80;9.60;;;;;;;3.63;83.49;96063.49;109007;1272;24221;-73
2024/03/10 02:54:03;;;;;;;14.80;10.20;;;;;;;3.61;83.40;96060.39;109024;1273;25325;-73
2024/03/10 02:56:36;;;;;;;17.30;11.60;;;;;;;3.54;83.26;96061.59;109005;1273;22518;-73
2024/03/10 02:59:09;;;;;;;14.10;10.50;;;;;;;3.49;83.33;96059.84;109046;1273;24223;-73
2024/03/10 03:01:43;;;;;;;13.80;10.10;;;;;;;3.46;83.40;96060.35;109130;1267;25424;-73
2024/03/10 03:04:15;;;;;;;15.20;10.80;;;;;;;3.45;83.45;96058.25;109158;1269;22458;-73
2024/03/10 03:06:46;;;;;;;14.90;11.00;;;;;;;3.45;83.43;96060.76;109139;1273;22473;-73
2024/03/10 03:09:20;;;;;;;15.20;10.10;;;;;;;3.44;83.52;96058.44;109143;1272;22508;-74
2024/03/10 03:11:56;;;;;;;13.20;8.90;;;;;;;3.41;83.49;96060.52;109167;1266;23807;-73
2024/03/10 03:14:29;;;;;;;13.50;8.70;;;;;;;3.33;83.35;96056.75;109139;1269;25401;-74
2024/03/10 03:17:00;;;;;;;14.20;8.90;;;;;;;3.34;83.49;96064.14;109160;1272;22507;-73
2024/03/10 03:19:38;;;;;;;15.20;10.10;;;;;;;3.37;83.74;96057.92;109149;1266;24105;-73
2024/03/10 03:22:09;;;;;;;15.30;9.50;;;;;;;3.39;83.83;96052.74;109110;1273;24770;-74
2024/03/10 03:24:42;;;;;;;14.40;9.50;;;;;;;3.40;83.94;96048.29;109100;1266;22854;-73
2024/03/10 03:27:13;;;;;;;13.30;8.70;;;;;;;3.38;83.86;96048.42;109161;1270;23828;-73
2024/03/10 03:29:44;;;;;;;17.80;11.80;;;;;;;3.39;83.90;96048.08;109177;1262;22624;-73
2024/03/10 03:32:15;;;;;;;16.20;11.30;;;;;;;3.39;83.82;96054.31;109173;1266;23179;-73
2024/03/10 03:34:53;;;;;;;15.10;10.00;;;;;;;3.37;83.77;96048.88;109236;1269;22959;-73
2024/03/10 03:37:25;;;;;;;12.90;8.80;;;;;;;3.38;84.03;96042.98;109262;1266;22536;-74
2024/03/10 03:39:56;;;;;;;13.70;10.00;;;;;;;3.39;83.93;96040.53;109171;1273;24180;-73
2024/03/10 03:42:28;;;;;;;16.00;11.10;;;;;;;3.39;84.03;96042.84;109178;1266;35392;-73
2024/03/10 03:45:02;;;;;;;16.60;10.60;;;;;;;3.40;84.02;96043.93;109193;1266;22537;-74
2024/03/10 03:47:34;;;;;;;14.20;9.00;;;;;;;3.41;84.03;96043.12;109274;1272;22524;-74
2024/03/10 03:50:09;;;;;;;13.50;10.20;;;;;;;3.41;84.03;96033.05;109269;1266;23741;-73
2024/03/10 03:52:42;;;;;;;15.70;10.70;;;;;;;3.40;84.00;96031.89;109215;1266;22582;-73
2024/03/10 03:55:14;;;;;;;16.10;11.00;;;;;;;3.36;84.04;96026.48;109225;1272;22549;-74
2024/03/10 03:57:45;;;;;;;15.90;11.40;;;;;;;3.33;84.07;96019.91;109193;1267;22511;-73
2024/03/10 04:00:17;;;;;;;13.20;9.00;;;;;;;3.25;83.96;96016.79;109176;1272;22537;-73
2024/03/10 04:02:48;;;;;;;12.00;8.50;;;;;;;3.18;83.98;96015.25;109205;1266;22523;-74
2024/03/10 04:05:21;;;;;;;14.80;10.40;;;;;;;3.15;84.00;96014.85;109207;1266;22657;-73
2024/03/10 04:07:52;;;;;;;16.90;11.60;;;;;;;3.02;83.83;96015.33;109239;1271;22515;-73
2024/03/10 04:10:26;;;;;;;17.70;11.90;;;;;;;2.96;84.39;96018.41;109205;1272;22484;-73
2024/03/10 04:13:01;;;;;;;14.10;9.00;;;;;;;3.02;84.64;96019.20;109147;1262;22579;-73
2024/03/10 04:15:35;;;;;;;13.80;9.80;;;;;;;3.08;84.64;96018.65;109246;1269;22563;-73
2024/03/10 04:18:09;;;;;;;16.30;10.80;;;;;;;3.15;84.81;96016.79;109135;1272;22684;-73
2024/03/10 04:20:49;;;;;;;16.10;10.80;;;;;;;3.16;84.88;96014.02;109186;1269;22514;-73
2024/03/10 04:23:25;;;;;;;11.80;7.90;;;;;;;3.13;84.65;96005.25;109178;1266;25258;-73
2024/03/10 04:25:57;;;;;;;13.90;8.70;;;;;;;3.14;84.64;96002.59;109172;1266;25418;-73
2024/03/10 04:28:33;;;;;;;11.70;8.10;;;;;;;3.15;84.71;95999.40;109213;1266;23201;-74
2024/03/10 04:31:07;;;;;;;13.70;9.90;;;;;;;3.16;84.83;95995.17;109217;1266;22584;-74
2024/03/10 04:33:43;;;;;;;14.30;9.30;;;;;;;3.19;84.89;95986.66;109186;1272;22913;-74
2024/03/10 04:36:17;;;;;;;13.00;9.50;;;;;;;3.21;84.82;95976.45;109096;1273;22543;-73
2024/03/10 04:38:53;;;;;;;12.00;7.90;;;;;;;3.22;84.85;95980.98;109093;1266;22480;-73
2024/03/10 04:41:27;;;;;;;13.30;8.10;;;;;;;3.22;84.57;95988.46;109138;1265;25413;-73
2024/03/10 04:43:58;;;;;;;25.60;14.80;;;;;;;3.17;84.55;95993.14;109127;1273;22520;-74
2024/03/10 04:46:32;;;;;;;20.60;14.50;;;;;;;3.03;84.18;95999.33;109107;1273;22532;-73
2024/03/10 04:49:06;;;;;;;16.60;10.40;;;;;;;2.85;84.18;95997.60;109139;1266;22581;-74
2024/03/10 04:51:39;;;;;;;12.30;7.80;;;;;;;2.81;84.75;95992.10;108930;1272;184873;-73
2024/03/10 04:54:12;;;;;;;12.40;8.20;;;;;;;2.86;84.97;95992.48;109084;1272;24375;-74
2024/03/10 04:56:45;;;;;;;13.10;9.40;;;;;;;2.92;85.20;95987.47;109137;1270;22649;-73
2024/03/10 04:59:19;;;;;;;14.50;9.40;;;;;;;2.96;85.19;95985.21;109132;1266;23368;-73
2024/03/10 05:01:55;;;;;;;12.00;8.30;;;;;;;3.03;85.29;95983.61;109106;1272;24167;-73
2024/03/10 05:04:28;;;;;;;12.90;9.60;;;;;;;3.08;85.22;95978.41;109133;1266;22518;-73
2024/03/10 05:06:59;;;;;;;12.00;8.70;;;;;;;3.09;85.12;95979.69;109091;1272;22674;-73
2024/03/10 05:09:30;;;;;;;9.70;6.80;;;;;;;3.07;84.97;95980.34;109041;1266;22459;-73
2024/03/10 05:12:08;;;;;;;8.70;6.00;;;;;;;2.98;84.63;95985.08;109058;1267;25424;-73
2024/03/10 05:14:40;;;;;;;8.80;6.10;;;;;;;2.86;84.63;95988.50;109126;1267;22622;-73
2024/03/10 05:17:13;;;;;;;11.70;7.60;;;;;;;2.73;84.55;95986.68;109099;1270;25405;-73
2024/03/10 05:19:47;;;;;;;13.00;7.90;;;;;;;2.65;84.89;95991.17;109100;1272;23697;-73
2024/03/10 05:22:23;;;;;;;14.10;8.60;;;;;;;2.68;85.28;95990.38;109003;1272;22544;-73
2024/03/10 05:24:54;;;;;;;12.30;8.60;;;;;;;2.68;85.29;95991.02;109105;1270;22518;-73
2024/03/10 05:27:30;;;;;;;14.10;9.60;;;;;;;2.69;85.52;95995.05;109074;1272;23815;-72
2024/03/10 05:30:03;;;;;;;12.60;8.50;;;;;;;2.68;85.34;95995.93;109086;1272;24244;-73
2024/03/10 05:32:40;;;;;;;11.70;8.10;;;;;;;2.63;85.35;96001.15;109148;1250;22574;-72
2024/03/10 05:35:11;;;;;;;15.10;10.30;;;;;;;2.62;85.39;95999.67;109075;1267;22524;-73
2024/03/10 05:37:42;;;;;;;24.50;14.20;;;;;;;2.59;85.40;95996.29;109081;1272;22537;-72
2024/03/10 05:40:16;;;;;;;18.20;12.80;;;;;;;2.60;85.77;95995.83;109065;1269;22540;-73
2024/03/10 05:42:54;;;;;;;20.00;12.00;;;;;;;2.69;86.09;95991.02;109102;1272;23688;-73
2024/03/10 05:45:25;;;;;;;14.00;8.80;;;;;;;2.80;86.23;95991.84;109052;1272;22521;-73
2024/03/10 05:47:57;;;;;;;17.40;11.60;;;;;;;2.91;86.31;95995.73;109056;1272;22461;-73
2024/03/10 05:50:32;;;;;;;16.10;11.10;;;;;;;2.98;86.17;95999.85;109128;1270;22560;-73
2024/03/10 05:53:04;;;;;;;16.00;10.60;;;;;;;3.02;86.05;96003.23;109090;1272;22522;-73
2024/03/10 05:55:37;;;;;;;16.00;11.20;;;;;;;3.07;86.06;96004.43;109104;1272;22555;-73
2024/03/10 05:58:09;;;;;;;15.20;10.90;;;;;;;3.09;85.92;96003.03;109140;1268;22536;-73
2024/03/10 06:00:40;;;;;;;13.80;9.10;;;;;;;3.07;85.91;96008.61;109027;1268;22523;-73
2024/03/10 06:03:12;;;;;;;14.20;9.70;;;;;;;3.00;85.71;96007.89;109047;1269;22504;-73
2024/03/10 06:05:45;;;;;;;13.80;9.20;;;;;;;2.92;85.92;96005.05;109156;1266;22552;-73
2024/03/10 06:08:16;;;;;;;12.80;8.90;;;;;;;2.93;86.20;96005.11;109161;1266;22569;-73
2024/03/10 06:10:48;;;;;;;13.90;9.40;;;;;;;3.03;86.35;95999.84;109134;1266;22581;-73
2024/03/10 06:13:20;;;;;;;14.70;9.30;;;;;;;3.16;86.51;96007.00;109109;1272;22515;-73
2024/03/10 06:15:53;;;;;;;13.10;7.30;;;;;;;3.28;86.47;96003.05;109106;1266;23862;-73
2024/03/10 06:18:31;;;;;;;11.80;8.70;;;;;;;3.42;86.51;96002.71;109079;1270;24302;-73
2024/03/10 06:26:46;;;;;;;13.60;8.50;;;;;;;3.94;86.17;96009.57;109067;1262;25402;-74
2024/03/10 06:29:19;;;;;;;11.70;7.70;;;;;;;4.01;85.94;96007.31;109160;1272;22452;-73
2024/03/10 06:31:50;;;;;;;11.60;7.80;;;;;;;4.09;85.74;96005.54;109163;1268;22514;-74
2024/03/10 06:34:26;;;;;;;11.80;8.20;;;;;;;4.21;85.65;96002.61;109153;1266;22507;-73
2024/03/10 06:36:57;;;;;;;11.00;7.90;;;;;;;4.36;85.60;95998.88;109144;1254;22692;-74
2024/03/10 06:39:33;;;;;;;10.50;7.10;;;;;;;4.58;85.44;95990.73;109084;1266;23024;-74
2024/03/10 06:42:05;;;;;;;11.60;6.90;;;;;;;4.78;85.11;95995.17;109069;1272;22739;-74
2024/03/10 06:44:36;;;;;;;10.90;7.60;;;;;;;4.87;84.49;95996.00;109151;1270;22567;-73
2024/03/10 06:47:10;;;;;;;10.60;7.50;;;;;;;4.89;84.35;95994.80;109101;1266;24232;-73
2024/03/10 06:49:41;;;;;;;12.00;7.90;;;;;;;4.87;83.96;95989.95;109124;1269;22531;-73
2024/03/10 06:52:14;;;;;;;9.40;6.50;;;;;;;4.85;83.65;95989.33;109104;1266;22889;-74
2024/03/10 06:54:46;;;;;;;10.50;8.00;;;;;;;4.87;83.68;95991.79;109099;1266;22549;-74
2024/03/10 06:57:17;;;;;;;11.20;7.60;;;;;;;4.90;83.50;95987.23;109035;1270;24247;-74
2024/03/10 06:59:50;;;;;;;14.10;8.30;;;;;;;4.91;83.48;95984.30;109124;1273;24302;-73
2024/03/10 07:02:26;;;;;;;10.60;7.50;;;;;;;4.95;83.38;95983.90;109099;1273;22520;-73
2024/03/10 07:05:02;;;;;;;9.10;7.00;;;;;;;5.03;83.43;95983.82;109116;1272;22647;-73
2024/03/10 07:07:37;;;;;;;10.40;7.40;;;;;;;5.15;83.49;95981.34;109144;1250;22611;-74
2024/03/10 07:10:12;;;;;;;10.70;7.40;;;;;;;5.23;83.21;95987.67;109126;1272;22515;-73
2024/03/10 07:12:48;;;;;;;11.60;8.00;;;;;;;5.26;82.91;95988.09;109109;1266;22536;-73
2024/03/10 07:15:19;;;;;;;10.50;7.50;;;;;;;5.29;82.74;95983.27;109151;1266;22476;-74
2024/03/10 07:17:53;;;;;;;8.80;6.20;;;;;;;5.37;82.74;95978.66;109376;1272;25633;-74
2024/03/10 07:20:25;;;;;;;9.60;6.40;;;;;;;5.49;82.59;95976.89;109204;1273;22568;-74
2024/03/10 07:23:01;;;;;;;10.70;6.90;;;;;;;5.59;82.57;95975.33;109155;1267;22551;-73
2024/03/10 07:25:33;;;;;;;8.10;6.10;;;;;;;5.79;82.81;95970.49;109136;1269;24190;-74
2024/03/10 07:28:05;;;;;;;10.40;7.30;;;;;;;6.00;82.52;95969.48;109112;1274;24842;-74
2024/03/10 07:30:37;;;;;;;9.60;6.90;;;;;;;6.26;82.81;95974.39;109058;1267;22493;-73
2024/03/10 07:33:11;;;;;;;8.60;6.30;;;;;;;6.55;82.41;95982.02;109052;1265;22451;-74
2024/03/10 07:35:46;;;;;;;9.70;6.90;;;;;;;6.85;82.22;95978.12;109121;1271;22551;-74
2024/03/10 07:38:20;;;;;;;8.60;6.70;;;;;;;7.20;81.96;95973.27;109086;1269;22814;-73
2024/03/10 07:40:54;;;;;;;8.90;6.60;;;;;;;7.34;81.23;95974.58;109131;1272;23915;-74
2024/03/10 07:43:31;;;;;;;8.90;6.30;;;;;;;7.38;80.73;95971.97;109046;1272;22517;-75
2024/03/10 07:46:05;;;;;;;9.10;6.80;;;;;;;7.41;80.41;95973.01;109110;1272;22851;-74
2024/03/10 07:48:36;;;;;;;8.20;6.10;;;;;;;7.52;80.18;95965.45;109122;1250;22543;-73
2024/03/10 07:51:13;;;;;;;8.40;5.40;;;;;;;7.53;79.65;95966.65;109138;1266;22411;-73
2024/03/10 07:53:44;;;;;;;8.90;5.50;;;;;;;7.60;79.43;95963.77;109295;1266;22532;-74
2024/03/10 07:56:24;;;;;;;8.30;6.00;;;;;;;7.75;79.61;95957.52;109174;1266;22508;-74
2024/03/10 07:59:07;;;;;;;8.40;6.30;;;;;;;7.92;79.09;95958.71;109268;1266;22483;-74
2024/03/10 08:01:40;;;;;;;7.70;5.50;;;;;;;8.06;78.70;95963.44;109246;1266;22511;-74
2024/03/10 08:04:14;;;;;;;10.00;6.00;;;;;;;8.19;78.20;95954.51;109161;1266;22654;-73
2024/03/10 08:06:51;;;;;;;8.70;5.90;;;;;;;8.42;78.28;95949.14;109168;1272;23264;-74
2024/03/10 08:09:25;;;;;;;8.90;6.50;;;;;;;8.57;77.96;95944.05;109305;1266;25414;-74
2024/03/10 08:11:59;;;;;;;9.70;7.20;;;;;;;8.64;77.58;95942.88;109273;1250;25223;-74
2024/03/10 08:14:34;;;;;;;10.20;6.90;;;;;;;9.10;77.74;95949.67;109150;1266;22578;-75
2024/03/10 08:17:08;;;;;;;8.40;6.30;;;;;;;9.28;77.30;95945.77;109153;1271;23404;-74
2024/03/10 08:19:42;;;;;;;9.00;7.20;;;;;;;9.22;76.87;95943.59;109097;1269;23904;-74
2024/03/10 08:22:17;;;;;;;9.30;6.90;;;;;;;9.24;76.79;95943.17;109128;1272;22608;-74
2024/03/10 08:24:51;;;;;;;10.30;7.40;;;;;;;9.13;76.36;95936.56;109220;1267;22518;-74
2024/03/10 08:27:25;;;;;;;9.40;6.90;;;;;;;8.90;76.04;95932.05;109142;1267;25444;-74
2024/03/10 08:29:58;;;;;;;8.90;6.90;;;;;;;8.79;76.09;95931.77;109168;1268;22511;-75
2024/03/10 08:32:29;;;;;;;10.80;6.80;;;;;;;8.68;76.16;95932.21;109144;1262;22541;-74
2024/03/10 08:35:01;;;;;;;8.00;6.20;;;;;;;8.63;76.01;95936.77;109125;1273;22518;-73
2024/03/10 08:37:32;;;;;;;9.80;6.90;;;;;;;8.55;75.83;95937.25;109127;1266;22536;-74
2024/03/10 08:40:09;;;;;;;9.70;6.90;;;;;;;8.53;76.06;95935.02;109135;1272;25955;-74
2024/03/10 08:42:44;;;;;;;8.60;6.50;;;;;;;8.57;76.06;95929.36;109166;1269;22514;-73
2024/03/10 08:45:19;;;;;;;8.90;6.70;;;;;;;8.66;76.33;95930.33;109178;1272;22550;-74
2024/03/10 08:47:53;;;;;;;9.30;7.00;;;;;;;8.80;76.41;95927.79;109145;1266;23759;-74
2024/03/10 08:50:29;;;;;;;8.30;5.90;;;;;;;8.88;76.40;95924.52;109167;1272;22578;-74
2024/03/10 08:53:11;;;;;;;9.10;6.40;;;;;;;8.94;76.11;95925.71;109175;1267;23964;-74
2024/03/10 08:55:44;;;;;;;8.40;6.20;;;;;;;9.05;76.44;95925.16;109175;1266;22510;-74
2024/03/10 08:58:18;;;;;;;8.90;5.80;;;;;;;9.59;77.86;95917.60;109144;1269;22524;-75
2024/03/10 09:00:51;;;;;;;6.60;4.50;;;;;;;10.36;78.06;95913.65;109277;1266;23684;-74
2024/03/10 09:03:24;;;;;;;6.50;5.00;;;;;;;11.37;78.28;95910.80;109166;1270;22511;-74
2024/03/10 09:05:56;;;;;;;5.80;4.10;;;;;;;12.12;77.16;95909.59;109147;1266;22546;-74
2024/03/10 09:08:30;;;;;;;6.70;4.70;;;;;;;12.64;76.28;95899.59;109123;1272;22681;-74
2024/03/10 09:11:06;;;;;;;8.70;4.80;;;;;;;12.96;74.45;95896.84;109181;1272;25301;-74
2024/03/10 09:13:41;;;;;;;8.50;4.50;;;;;;;13.10;73.58;95891.98;109135;1269;23872;-74
2024/03/10 09:16:12;;;;;;;5.90;4.50;;;;;;;13.21;72.82;95888.79;109162;1269;22508;-74
2024/03/10 09:18:48;;;;;;;6.90;4.50;;;;;;;13.12;71.41;95897.11;109134;1273;22551;-73
2024/03/10 09:21:22;;;;;;;5.80;4.30;;;;;;;12.83;69.39;95901.38;109087;1270;25400;-73
2024/03/10 09:23:54;;;;;;;5.20;3.70;;;;;;;12.51;69.27;95903.90;109188;1266;22286;-73
2024/03/10 09:26:30;;;;;;;5.80;4.10;;;;;;;12.19;65.60;95901.29;109187;1269;24330;-74
2024/03/10 09:29:06;;;;;;;5.30;4.10;;;;;;;11.91;64.80;95910.17;109128;1266;23292;-73
2024/03/10 09:31:40;;;;;;;5.50;3.90;;;;;;;11.77;62.39;95914.75;109174;1271;22866;-74
2024/03/10 09:34:11;;;;;;;6.00;4.00;;;;;;;11.75;61.36;95910.10;109201;1272;22560;-74
2024/03/10 09:36:45;;;;;;;6.50;4.10;;;;;;;11.84;61.28;95900.52;109125;1267;22509;-74
2024/03/10 09:39:18;;;;;;;5.70;4.00;;;;;;;11.99;61.57;95896.96;109135;1273;23052;-74
2024/03/10 09:41:51;;;;;;;5.20;3.70;;;;;;;12.16;61.92;95890.40;109194;1269;22506;-74
2024/03/10 09:44:29;;;;;;;5.10;3.80;;;;;;;12.23;60.40;95889.73;109111;1266;22515;-74
2024/03/10 09:47:06;;;;;;;5.00;3.80;;;;;;;12.38;60.90;95886.91;109210;1272;22515;-74
2024/03/10 09:49:39;;;;;;;4.60;3.70;;;;;;;12.50;60.09;95886.41;109143;1267;23343;-74
2024/03/10 09:52:12;;;;;;;7.00;4.20;;;;;;;12.52;60.30;95889.20;109189;1269;23800;-73
2024/03/10 09:54:43;;;;;;;4.70;3.70;;;;;;;12.49;60.42;95890.22;109217;1268;22606;-73
2024/03/10 09:57:18;;;;;;;5.50;4.00;;;;;;;12.58;61.36;95885.69;109165;1268;22538;-73
2024/03/10 09:59:53;;;;;;;4.70;3.80;;;;;;;12.71;61.93;95883.58;109161;1266;22636;-73
2024/03/10 10:02:34;;;;;;;5.20;4.00;;;;;;;12.74;59.18;95887.23;109226;1266;22560;-74
2024/03/10 10:05:14;;;;;;;6.20;3.80;;;;;;;12.74;59.35;95885.27;109192;1272;22530;-73
2024/03/10 10:07:44;;;;;;;;;;;;;;;12.76;58.30;95889.68;109212;1273;23836;-73
2024/03/10 10:10:20;;;;;;;5.70;4.40;;;;;;;12.80;58.16;95887.60;109105;1270;22477;-73
2024/03/10 10:12:53;;;;;;;5.50;3.90;;;;;;;12.77;58.44;95884.55;109191;1266;23529;-74
2024/03/10 10:15:26;;;;;;;5.60;3.90;;;;;;;12.79;57.92;95878.42;109267;1266;23901;-73
2024/03/10 10:18:03;;;;;;;6.20;3.80;;;;;;;12.80;58.06;95878.05;109176;1265;22578;-74
2024/03/10 10:20:36;;;;;;;6.00;3.90;;;;;;;12.77;58.50;95871.09;109154;1266;22535;-73
2024/03/10 10:23:14;;;;;;;5.10;3.80;;;;;;;12.79;58.13;95871.72;109113;1269;22515;-73
2024/03/10 10:25:46;;;;;;;7.50;3.70;;;;;;;12.78;57.15;95874.85;109161;1269;22508;-73
2024/03/10 10:28:20;;;;;;;6.50;4.20;;;;;;;12.76;57.34;95880.77;109167;1272;23266;-73
2024/03/10 10:30:51;;;;;;;5.50;3.90;;;;;;;12.81;57.72;95879.09;109164;1273;22468;-74
2024/03/10 10:33:27;;;;;;;5.90;4.20;;;;;;;12.83;57.73;95876.40;109122;1266;22652;-74
2024/03/10 10:35:58;;;;;;;7.00;4.40;;;;;;;13.04;57.94;95870.65;109179;1272;22526;-74
2024/03/10 10:38:37;;;;;;;5.60;4.00;;;;;;;13.18;57.59;95869.17;109162;1273;22513;-74
2024/03/10 10:41:17;;;;;;;6.00;3.90;;;;;;;13.13;56.73;95868.47;109129;1266;22536;-73
2024/03/10 10:43:52;;;;;;;5.00;4.00;;;;;;;13.25;57.01;95867.74;109126;1269;22533;-73
2024/03/10 10:46:25;;;;;;;5.80;3.90;;;;;;;13.36;56.79;95855.84;109157;1272;22523;-74
2024/03/10 10:48:57;;;;;;;4.70;3.90;;;;;;;13.40;56.68;95860.11;109147;1266;22560;-74
2024/03/10 10:51:34;;;;;;;5.00;4.20;;;;;;;13.35;56.90;95855.99;109107;1269;22645;-74
2024/03/10 10:54:11;;;;;;;4.10;3.60;;;;;;;13.33;57.12;95853.21;109153;1266;24189;-74
2024/03/10 10:56:43;;;;;;;4.80;3.80;;;;;;;13.30;57.03;95847.95;109149;1269;22536;-73
2024/03/10 10:59:19;;;;;;;4.60;3.50;;;;;;;13.30;57.81;95847.46;109142;1269;22582;-74
2024/03/10 11:02:19;;;;;;;5.00;3.70;;;;;;;13.35;58.06;95852.46;109140;1266;22501;-74
2024/03/10 11:04:53;;;;;;;3.90;3.20;;;;;;;13.28;57.73;95851.75;109164;1269;22523;-74
2024/03/10 11:07:35;;;;;;;4.10;3.40;;;;;;;13.17;57.38;95848.02;109173;1266;22518;-74
2024/03/10 11:13:26;;;;;;;4.50;3.00;;;;;;;13.07;56.96;95854.46;105378;1309;545105;-74
2024/03/10 11:16:09;;;;;;;3.90;3.20;;;;;;;12.98;57.27;95859.48;108212;1281;25461;-74
2024/03/10 11:18:50;;;;;;;4.20;3.20;;;;;;;12.90;57.70;95862.42;108246;1280;22669;-74
2024/03/10 11:21:24;;;;;;;3.90;3.30;;;;;;;12.90;57.66;95863.11;108198;1286;22551;-74
2024/03/10 11:23:59;;;;;;;4.00;3.10;;;;;;;12.92;57.30;95860.38;108202;1283;22534;-74
2024/03/10 11:26:32;;;;;;;3.60;2.90;;;;;;;12.94;57.32;95863.42;108142;1276;159752;-75
2024/03/10 11:29:06;;;;;;;4.00;2.90;;;;;;;12.84;56.94;95863.77;108320;1284;22508;-74
2024/03/10 11:31:40;;;;;;;4.00;2.60;;;;;;;12.79;57.62;95860.71;108352;1279;22756;-74
2024/03/10 11:34:13;;;;;;;3.10;2.80;;;;;;;12.90;57.74;95858.98;108377;1281;22628;-74
2024/03/10 11:36:47;;;;;;;4.20;3.10;;;;;;;12.90;57.75;95864.18;108586;1275;25282;-74
2024/03/10 11:39:20;;;;;;;4.50;3.00;;;;;;;12.87;58.17;95870.28;108612;1281;22587;-74
2024/03/10 11:41:52;;;;;;;3.40;2.60;;;;;;;12.88;58.41;95860.11;108927;1262;22605;-74
2024/03/10 11:44:28;;;;;;;2.90;2.60;;;;;;;12.82;57.74;95860.16;108917;1276;22528;-74
2024/03/10 11:47:05;;;;;;;2.70;2.40;;;;;;;12.77;58.20;95853.61;108960;1269;24467;-74
2024/03/10 11:49:36;;;;;;;3.60;2.70;;;;;;;12.83;58.68;95855.09;108903;1269;22581;-74
2024/03/10 11:52:12;;;;;;;3.40;2.90;;;;;;;12.96;59.29;95853.66;108883;1269;22665;-74
2024/03/10 11:54:57;;;;;;;4.90;3.10;;;;;;;13.07;58.23;95855.76;108931;1269;23315;-74
2024/03/10 11:57:33;;;;;;;3.30;2.50;;;;;;;13.09;59.42;95853.99;108988;1269;24038;-73
2024/03/10 12:00:09;;;;;;;3.40;2.80;;;;;;;13.27;59.75;95850.41;109293;1269;22630;-74
2024/03/10 12:02:40;;;;;;;3.50;2.60;;;;;;;13.41;60.05;95847.67;109064;1269;22493;-73
2024/03/10 12:05:17;;;;;;;4.00;2.80;;;;;;;13.40;58.55;95850.98;108973;1269;22550;-74
2024/03/10 12:07:57;;;;;;;3.10;2.50;;;;;;;13.19;58.10;95852.71;108969;1269;22971;-75
2024/03/10 12:10:32;;;;;;;2.90;2.20;;;;;;;13.09;58.70;95848.84;108906;1269;25300;-74
2024/03/10 12:13:09;;;;;;;2.90;2.50;;;;;;;13.05;58.76;95844.10;108913;1269;24226;-74
2024/03/10 12:15:55;;;;;;;3.60;2.80;;;;;;;13.14;58.82;95840.07;108938;1269;22539;-73
2024/03/10 12:18:29;;;;;;;2.80;2.30;;;;;;;13.08;58.52;95836.88;108892;1276;22565;-74
2024/03/10 12:21:03;;;;;;;3.50;2.80;;;;;;;13.05;59.04;95833.35;108918;1269;25261;-73